Natal, Brazil
Current Conditions -  °F | °C
As of 7:00 AM on Saturday 22 Nov 2014 (Local Time) from SBNT Reporting Station
Rain Showers Rain Showers  
Wind Chill: 81°   Ceiling: Unl
Heat Index: 83°   Visibility: 6mi
Dew Point: 68°   Wind: 17mph
Humidity: 65%   Direction: 100°E
Pressure: NA   Gusts: NA
Location:  5.8°S, 35.22°W
Report Text: SBNT 221000Z 10015KT 9999 VCSH SCT020 FEW025TCU SCT100 27/20 Q1013
Loading
Personal Weather Stations






























Interactive Weather Map New forecast layout! Learn more

10-Day Weather Forecast

Advertisements
Track Severe Weather on mobile